sensor_id;sensor_type;location;lat;lon;timestamp;P1;durP1;ratioP1;P2;durP2;ratioP2
31594;SDS011;18200;48.726;8.892;2023-08-06T00:02:38;6.45;;;3.10;;
31594;SDS011;18200;48.726;8.892;2023-08-06T00:06:38;6.22;;;3.92;;
31594;SDS011;18200;48.726;8.892;2023-08-06T00:10:39;4.13;;;3.20;;
31594;SDS011;18200;48.726;8.892;2023-08-06T00:14:41;9.10;;;3.60;;
31594;SDS011;18200;48.726;8.892;2023-08-06T00:18:42;6.22;;;3.53;;
31594;SDS011;18200;48.726;8.892;2023-08-06T00:22:43;7.50;;;4.00;;
31594;SDS011;18200;48.726;8.892;2023-08-06T00:26:43;20.65;;;5.18;;
31594;SDS011;18200;48.726;8.892;2023-08-06T00:30:43;10.50;;;4.43;;
31594;SDS011;18200;48.726;8.892;2023-08-06T00:34:44;4.90;;;3.88;;
31594;SDS011;18200;48.726;8.892;2023-08-06T00:38:44;4.82;;;3.53;;
31594;SDS011;18200;48.726;8.892;2023-08-06T00:42:45;6.90;;;3.47;;
31594;SDS011;18200;48.726;8.892;2023-08-06T00:46:46;5.85;;;3.47;;
31594;SDS011;18200;48.726;8.892;2023-08-06T00:50:47;5.82;;;3.10;;
31594;SDS011;18200;48.726;8.892;2023-08-06T00:54:47;5.93;;;3.45;;
31594;SDS011;18200;48.726;8.892;2023-08-06T00:58:49;3.22;;;2.80;;
31594;SDS011;18200;48.726;8.892;2023-08-06T01:02:50;4.13;;;3.28;;
31594;SDS011;18200;48.726;8.892;2023-08-06T01:06:52;3.42;;;3.10;;
31594;SDS011;18200;48.726;8.892;2023-08-06T01:15:13;4.15;;;3.50;;
31594;SDS011;18200;48.726;8.892;2023-08-06T01:19:20;4.40;;;3.40;;
31594;SDS011;18200;48.726;8.892;2023-08-06T01:23:21;6.20;;;3.20;;
31594;SDS011;18200;48.726;8.892;2023-08-06T01:27:28;3.88;;;3.17;;
31594;SDS011;18200;48.726;8.892;2023-08-06T01:31:39;11.73;;;3.08;;
31594;SDS011;18200;48.726;8.892;2023-08-06T01:35:43;5.45;;;3.40;;
31594;SDS011;18200;48.726;8.892;2023-08-06T01:39:44;5.03;;;3.22;;
31594;SDS011;18200;48.726;8.892;2023-08-06T01:43:45;3.75;;;3.38;;
31594;SDS011;18200;48.726;8.892;2023-08-06T01:47:45;3.30;;;3.00;;
31594;SDS011;18200;48.726;8.892;2023-08-06T01:51:45;5.13;;;3.40;;
31594;SDS011;18200;48.726;8.892;2023-08-06T01:55:49;7.10;;;3.45;;
31594;SDS011;18200;48.726;8.892;2023-08-06T01:59:50;2.93;;;2.63;;
31594;SDS011;18200;48.726;8.892;2023-08-06T02:03:50;9.88;;;3.35;;
31594;SDS011;18200;48.726;8.892;2023-08-06T02:07:50;6.70;;;3.35;;
31594;SDS011;18200;48.726;8.892;2023-08-06T02:11:51;5.03;;;3.35;;
31594;SDS011;18200;48.726;8.892;2023-08-06T02:15:51;5.05;;;3.38;;
31594;SDS011;18200;48.726;8.892;2023-08-06T02:19:52;6.10;;;3.45;;
31594;SDS011;18200;48.726;8.892;2023-08-06T02:23:52;6.65;;;3.58;;
31594;SDS011;18200;48.726;8.892;2023-08-06T02:27:53;5.60;;;3.13;;
31594;SDS011;18200;48.726;8.892;2023-08-06T02:31:53;4.75;;;3.22;;
31594;SDS011;18200;48.726;8.892;2023-08-06T02:36:00;8.30;;;3.63;;
31594;SDS011;18200;48.726;8.892;2023-08-06T02:40:01;5.65;;;3.22;;
31594;SDS011;18200;48.726;8.892;2023-08-06T02:44:02;7.13;;;3.53;;
31594;SDS011;18200;48.726;8.892;2023-08-06T02:48:03;7.78;;;3.40;;
31594;SDS011;18200;48.726;8.892;2023-08-06T02:52:04;6.28;;;3.65;;
31594;SDS011;18200;48.726;8.892;2023-08-06T02:56:05;7.13;;;2.85;;
31594;SDS011;18200;48.726;8.892;2023-08-06T03:00:17;7.93;;;3.30;;
31594;SDS011;18200;48.726;8.892;2023-08-06T03:04:18;4.43;;;2.95;;
31594;SDS011;18200;48.726;8.892;2023-08-06T03:08:20;5.22;;;3.22;;
31594;SDS011;18200;48.726;8.892;2023-08-06T03:12:23;6.75;;;3.47;;
31594;SDS011;18200;48.726;8.892;2023-08-06T03:16:24;5.22;;;3.05;;
31594;SDS011;18200;48.726;8.892;2023-08-06T03:20:25;6.90;;;3.60;;
31594;SDS011;18200;48.726;8.892;2023-08-06T03:24:25;6.38;;;3.30;;
31594;SDS011;18200;48.726;8.892;2023-08-06T03:28:26;7.15;;;3.55;;
31594;SDS011;18200;48.726;8.892;2023-08-06T03:32:26;5.28;;;2.80;;
31594;SDS011;18200;48.726;8.892;2023-08-06T03:36:27;6.30;;;2.60;;
31594;SDS011;18200;48.726;8.892;2023-08-06T03:40:28;7.82;;;3.15;;
31594;SDS011;18200;48.726;8.892;2023-08-06T03:44:31;7.00;;;3.35;;
31594;SDS011;18200;48.726;8.892;2023-08-06T03:48:31;6.88;;;2.85;;
31594;SDS011;18200;48.726;8.892;2023-08-06T03:52:32;7.32;;;2.97;;
31594;SDS011;18200;48.726;8.892;2023-08-06T03:56:33;6.43;;;3.10;;
31594;SDS011;18200;48.726;8.892;2023-08-06T04:00:33;5.80;;;2.88;;
31594;SDS011;18200;48.726;8.892;2023-08-06T04:04:34;4.78;;;2.83;;
31594;SDS011;18200;48.726;8.892;2023-08-06T04:08:34;9.02;;;4.25;;
31594;SDS011;18200;48.726;8.892;2023-08-06T04:12:36;6.38;;;2.95;;
31594;SDS011;18200;48.726;8.892;2023-08-06T04:16:39;3.85;;;2.20;;
31594;SDS011;18200;48.726;8.892;2023-08-06T04:20:43;4.53;;;1.95;;
31594;SDS011;18200;48.726;8.892;2023-08-06T04:24:44;4.20;;;1.70;;
31594;SDS011;18200;48.726;8.892;2023-08-06T04:28:45;4.68;;;1.92;;
31594;SDS011;18200;48.726;8.892;2023-08-06T04:32:46;4.55;;;1.75;;
31594;SDS011;18200;48.726;8.892;2023-08-06T04:36:46;4.07;;;1.50;;
31594;SDS011;18200;48.726;8.892;2023-08-06T04:40:47;5.10;;;3.00;;
31594;SDS011;18200;48.726;8.892;2023-08-06T04:44:47;4.38;;;1.60;;
31594;SDS011;18200;48.726;8.892;2023-08-06T04:48:48;3.70;;;1.83;;
31594;SDS011;18200;48.726;8.892;2023-08-06T04:52:49;4.60;;;1.75;;
31594;SDS011;18200;48.726;8.892;2023-08-06T04:56:49;6.80;;;3.40;;
31594;SDS011;18200;48.726;8.892;2023-08-06T05:00:49;4.70;;;1.15;;
31594;SDS011;18200;48.726;8.892;2023-08-06T05:04:50;2.35;;;1.30;;
31594;SDS011;18200;48.726;8.892;2023-08-06T05:08:50;1.73;;;1.10;;
31594;SDS011;18200;48.726;8.892;2023-08-06T05:12:51;1.50;;;1.10;;
31594;SDS011;18200;48.726;8.892;2023-08-06T05:16:51;2.97;;;1.45;;
31594;SDS011;18200;48.726;8.892;2023-08-06T05:20:51;2.75;;;1.05;;
31594;SDS011;18200;48.726;8.892;2023-08-06T05:24:52;4.18;;;1.00;;
31594;SDS011;18200;48.726;8.892;2023-08-06T05:28:52;2.17;;;0.85;;
31594;SDS011;18200;48.726;8.892;2023-08-06T05:32:53;3.30;;;0.93;;
31594;SDS011;18200;48.726;8.892;2023-08-06T05:36:53;1.42;;;0.75;;
31594;SDS011;18200;48.726;8.892;2023-08-06T05:40:53;1.90;;;0.85;;
31594;SDS011;18200;48.726;8.892;2023-08-06T05:44:55;1.70;;;0.88;;
31594;SDS011;18200;48.726;8.892;2023-08-06T05:48:55;2.55;;;0.90;;
31594;SDS011;18200;48.726;8.892;2023-08-06T05:52:55;2.97;;;0.75;;
31594;SDS011;18200;48.726;8.892;2023-08-06T05:56:56;3.45;;;0.75;;
31594;SDS011;18200;48.726;8.892;2023-08-06T06:00:56;1.23;;;0.70;;
31594;SDS011;18200;48.726;8.892;2023-08-06T06:04:57;4.25;;;0.82;;
31594;SDS011;18200;48.726;8.892;2023-08-06T06:08:57;1.83;;;0.50;;
31594;SDS011;18200;48.726;8.892;2023-08-06T06:12:58;3.83;;;0.63;;
31594;SDS011;18200;48.726;8.892;2023-08-06T06:16:58;4.90;;;1.00;;
31594;SDS011;18200;48.726;8.892;2023-08-06T06:21:00;1.20;;;0.50;;
31594;SDS011;18200;48.726;8.892;2023-08-06T06:25:00;2.63;;;0.32;;
31594;SDS011;18200;48.726;8.892;2023-08-06T06:29:00;1.77;;;0.60;;
31594;SDS011;18200;48.726;8.892;2023-08-06T06:33:01;1.95;;;0.40;;
31594;SDS011;18200;48.726;8.892;2023-08-06T06:37:01;2.88;;;0.98;;
31594;SDS011;18200;48.726;8.892;2023-08-06T06:41:01;0.35;;;0.30;;
31594;SDS011;18200;48.726;8.892;2023-08-06T06:45:03;1.17;;;0.40;;
31594;SDS011;18200;48.726;8.892;2023-08-06T06:49:04;1.02;;;0.68;;
31594;SDS011;18200;48.726;8.892;2023-08-06T06:53:04;1.42;;;0.40;;
31594;SDS011;18200;48.726;8.892;2023-08-06T06:57:05;1.77;;;0.40;;
31594;SDS011;18200;48.726;8.892;2023-08-06T07:01:06;0.93;;;0.30;;
31594;SDS011;18200;48.726;8.892;2023-08-06T07:05:07;1.88;;;0.40;;
31594;SDS011;18200;48.726;8.892;2023-08-06T07:09:07;0.73;;;0.40;;
31594;SDS011;18200;48.726;8.892;2023-08-06T07:13:08;1.10;;;0.40;;
31594;SDS011;18200;48.726;8.892;2023-08-06T07:17:09;1.35;;;0.40;;
31594;SDS011;18200;48.726;8.892;2023-08-06T07:21:09;1.85;;;0.70;;
31594;SDS011;18200;48.726;8.892;2023-08-06T07:25:10;0.80;;;0.35;;
31594;SDS011;18200;48.726;8.892;2023-08-06T07:29:10;1.35;;;0.30;;
31594;SDS011;18200;48.726;8.892;2023-08-06T07:33:11;1.50;;;0.30;;
31594;SDS011;18200;48.726;8.892;2023-08-06T07:37:11;0.68;;;0.25;;
31594;SDS011;18200;48.726;8.892;2023-08-06T07:41:12;0.47;;;0.25;;
31594;SDS011;18200;48.726;8.892;2023-08-06T07:45:12;0.88;;;0.35;;
31594;SDS011;18200;48.726;8.892;2023-08-06T07:49:12;0.25;;;0.20;;
31594;SDS011;18200;48.726;8.892;2023-08-06T07:53:13;2.15;;;0.40;;
31594;SDS011;18200;48.726;8.892;2023-08-06T07:57:13;1.95;;;0.40;;
31594;SDS011;18200;48.726;8.892;2023-08-06T08:01:15;0.32;;;0.20;;
31594;SDS011;18200;48.726;8.892;2023-08-06T08:05:15;0.10;;;0.10;;
31594;SDS011;18200;48.726;8.892;2023-08-06T08:09:15;2.08;;;0.30;;
31594;SDS011;18200;48.726;8.892;2023-08-06T08:13:16;0.60;;;0.20;;
31594;SDS011;18200;48.726;8.892;2023-08-06T08:17:16;0.10;;;0.10;;
31594;SDS011;18200;48.726;8.892;2023-08-06T08:21:17;0.00;;;0.00;;
31594;SDS011;18200;48.726;8.892;2023-08-06T08:25:18;0.30;;;0.30;;
31594;SDS011;18200;48.726;8.892;2023-08-06T08:29:21;0.50;;;0.10;;
31594;SDS011;18200;48.726;8.892;2023-08-06T08:33:22;2.10;;;0.10;;
31594;SDS011;18200;48.726;8.892;2023-08-06T08:37:23;0.40;;;0.20;;
31594;SDS011;18200;48.726;8.892;2023-08-06T08:41:23;2.65;;;0.93;;
31594;SDS011;18200;48.726;8.892;2023-08-06T08:45:26;1.60;;;0.20;;
31594;SDS011;18200;48.726;8.892;2023-08-06T08:49:28;0.17;;;0.10;;
31594;SDS011;18200;48.726;8.892;2023-08-06T08:53:30;0.20;;;0.20;;
31594;SDS011;18200;48.726;8.892;2023-08-06T08:57:31;0.17;;;0.17;;
31594;SDS011;18200;48.726;8.892;2023-08-06T09:01:32;0.70;;;0.10;;
31594;SDS011;18200;48.726;8.892;2023-08-06T09:05:33;1.08;;;0.17;;
31594;SDS011;18200;48.726;8.892;2023-08-06T09:09:35;0.05;;;0.05;;
31594;SDS011;18200;48.726;8.892;2023-08-06T09:13:37;0.30;;;0.20;;
31594;SDS011;18200;48.726;8.892;2023-08-06T09:17:39;0.10;;;0.10;;
31594;SDS011;18200;48.726;8.892;2023-08-06T09:21:39;0.22;;;0.10;;
31594;SDS011;18200;48.726;8.892;2023-08-06T09:25:40;0.20;;;0.20;;
31594;SDS011;18200;48.726;8.892;2023-08-06T09:29:44;0.57;;;0.10;;
31594;SDS011;18200;48.726;8.892;2023-08-06T09:33:45;0.85;;;0.17;;
31594;SDS011;18200;48.726;8.892;2023-08-06T09:37:48;0.65;;;0.20;;
31594;SDS011;18200;48.726;8.892;2023-08-06T09:41:49;0.10;;;0.10;;
31594;SDS011;18200;48.726;8.892;2023-08-06T09:45:56;5.28;;;0.20;;
31594;SDS011;18200;48.726;8.892;2023-08-06T09:49:56;0.38;;;0.20;;
31594;SDS011;18200;48.726;8.892;2023-08-06T09:53:57;0.65;;;0.10;;
31594;SDS011;18200;48.726;8.892;2023-08-06T09:57:59;0.22;;;0.10;;
31594;SDS011;18200;48.726;8.892;2023-08-06T10:02:00;0.35;;;0.20;;
31594;SDS011;18200;48.726;8.892;2023-08-06T10:06:00;0.15;;;0.15;;
31594;SDS011;18200;48.726;8.892;2023-08-06T10:10:06;1.45;;;0.20;;
31594;SDS011;18200;48.726;8.892;2023-08-06T10:14:08;1.40;;;0.13;;
31594;SDS011;18200;48.726;8.892;2023-08-06T10:18:12;0.43;;;0.20;;
31594;SDS011;18200;48.726;8.892;2023-08-06T10:22:18;1.50;;;0.30;;
31594;SDS011;18200;48.726;8.892;2023-08-06T10:26:18;0.47;;;0.30;;
31594;SDS011;18200;48.726;8.892;2023-08-06T10:30:22;0.20;;;0.10;;
31594;SDS011;18200;48.726;8.892;2023-08-06T10:34:52;0.10;;;0.10;;
31594;SDS011;18200;48.726;8.892;2023-08-06T10:38:53;0.10;;;0.10;;
31594;SDS011;18200;48.726;8.892;2023-08-06T10:43:02;2.72;;;0.20;;
31594;SDS011;18200;48.726;8.892;2023-08-06T10:51:26;0.57;;;0.20;;
31594;SDS011;18200;48.726;8.892;2023-08-06T10:55:28;0.10;;;0.10;;
31594;SDS011;18200;48.726;8.892;2023-08-06T10:59:29;0.32;;;0.10;;
31594;SDS011;18200;48.726;8.892;2023-08-06T11:03:29;0.22;;;0.15;;
31594;SDS011;18200;48.726;8.892;2023-08-06T11:07:31;1.00;;;0.45;;
31594;SDS011;18200;48.726;8.892;2023-08-06T11:11:32;0.38;;;0.38;;
31594;SDS011;18200;48.726;8.892;2023-08-06T11:15:32;1.65;;;0.40;;
31594;SDS011;18200;48.726;8.892;2023-08-06T11:19:33;1.20;;;0.50;;
31594;SDS011;18200;48.726;8.892;2023-08-06T11:23:34;1.15;;;0.70;;
31594;SDS011;18200;48.726;8.892;2023-08-06T11:27:35;1.38;;;0.63;;
31594;SDS011;18200;48.726;8.892;2023-08-06T11:31:36;3.05;;;1.10;;
31594;SDS011;18200;48.726;8.892;2023-08-06T11:35:36;1.20;;;0.60;;
31594;SDS011;18200;48.726;8.892;2023-08-06T11:39:38;2.30;;;0.90;;
31594;SDS011;18200;48.726;8.892;2023-08-06T11:43:39;1.25;;;0.77;;
31594;SDS011;18200;48.726;8.892;2023-08-06T11:47:39;2.50;;;0.95;;
31594;SDS011;18200;48.726;8.892;2023-08-06T11:51:40;3.05;;;0.90;;
31594;SDS011;18200;48.726;8.892;2023-08-06T11:55:41;2.50;;;1.00;;
31594;SDS011;18200;48.726;8.892;2023-08-06T11:59:42;1.33;;;0.90;;
31594;SDS011;18200;48.726;8.892;2023-08-06T12:03:43;1.58;;;0.70;;
31594;SDS011;18200;48.726;8.892;2023-08-06T12:07:43;1.33;;;0.80;;
31594;SDS011;18200;48.726;8.892;2023-08-06T12:11:47;1.48;;;0.90;;
31594;SDS011;18200;48.726;8.892;2023-08-06T12:15:48;2.17;;;0.80;;
31594;SDS011;18200;48.726;8.892;2023-08-06T12:19:48;1.48;;;1.20;;
31594;SDS011;18200;48.726;8.892;2023-08-06T12:23:49;1.48;;;0.70;;
31594;SDS011;18200;48.726;8.892;2023-08-06T12:27:49;2.67;;;1.08;;
31594;SDS011;18200;48.726;8.892;2023-08-06T12:31:50;1.25;;;0.70;;
31594;SDS011;18200;48.726;8.892;2023-08-06T12:35:50;0.98;;;0.73;;
31594;SDS011;18200;48.726;8.892;2023-08-06T12:39:53;2.22;;;0.88;;
31594;SDS011;18200;48.726;8.892;2023-08-06T12:43:53;2.85;;;1.25;;
31594;SDS011;18200;48.726;8.892;2023-08-06T12:47:54;2.55;;;1.00;;
31594;SDS011;18200;48.726;8.892;2023-08-06T12:51:54;3.30;;;1.55;;
31594;SDS011;18200;48.726;8.892;2023-08-06T12:55:56;2.00;;;1.23;;
31594;SDS011;18200;48.726;8.892;2023-08-06T12:59:56;2.42;;;1.10;;
31594;SDS011;18200;48.726;8.892;2023-08-06T13:03:57;1.63;;;0.98;;
31594;SDS011;18200;48.726;8.892;2023-08-06T13:07:58;3.67;;;1.38;;
31594;SDS011;18200;48.726;8.892;2023-08-06T13:11:58;2.33;;;0.80;;
31594;SDS011;18200;48.726;8.892;2023-08-06T13:16:00;2.70;;;0.90;;
31594;SDS011;18200;48.726;8.892;2023-08-06T13:20:00;1.60;;;0.80;;
31594;SDS011;18200;48.726;8.892;2023-08-06T13:24:01;2.28;;;0.70;;
31594;SDS011;18200;48.726;8.892;2023-08-06T13:28:02;1.20;;;0.50;;
31594;SDS011;18200;48.726;8.892;2023-08-06T13:32:03;3.47;;;0.80;;
31594;SDS011;18200;48.726;8.892;2023-08-06T13:36:04;1.58;;;0.70;;
31594;SDS011;18200;48.726;8.892;2023-08-06T13:40:04;2.47;;;0.60;;
31594;SDS011;18200;48.726;8.892;2023-08-06T13:44:06;0.98;;;0.60;;
31594;SDS011;18200;48.726;8.892;2023-08-06T13:48:07;0.65;;;0.55;;
31594;SDS011;18200;48.726;8.892;2023-08-06T13:52:07;1.13;;;0.70;;
31594;SDS011;18200;48.726;8.892;2023-08-06T13:56:10;2.40;;;1.10;;
31594;SDS011;18200;48.726;8.892;2023-08-06T14:00:11;4.50;;;1.00;;
31594;SDS011;18200;48.726;8.892;2023-08-06T14:04:16;1.30;;;0.68;;
31594;SDS011;18200;48.726;8.892;2023-08-06T14:08:16;1.55;;;0.80;;
31594;SDS011;18200;48.726;8.892;2023-08-06T14:12:20;3.50;;;0.80;;
31594;SDS011;18200;48.726;8.892;2023-08-06T14:16:20;2.28;;;1.17;;
31594;SDS011;18200;48.726;8.892;2023-08-06T14:20:20;2.28;;;0.80;;
31594;SDS011;18200;48.726;8.892;2023-08-06T14:24:21;1.38;;;0.98;;
31594;SDS011;18200;48.726;8.892;2023-08-06T14:28:21;1.65;;;0.80;;
31594;SDS011;18200;48.726;8.892;2023-08-06T14:32:22;1.50;;;0.75;;
31594;SDS011;18200;48.726;8.892;2023-08-06T14:36:22;0.93;;;0.77;;
31594;SDS011;18200;48.726;8.892;2023-08-06T14:40:22;3.00;;;1.10;;
31594;SDS011;18200;48.726;8.892;2023-08-06T14:44:23;1.00;;;0.70;;
31594;SDS011;18200;48.726;8.892;2023-08-06T14:48:23;2.70;;;0.73;;
31594;SDS011;18200;48.726;8.892;2023-08-06T14:52:23;1.15;;;0.80;;
31594;SDS011;18200;48.726;8.892;2023-08-06T14:56:24;3.38;;;0.70;;
31594;SDS011;18200;48.726;8.892;2023-08-06T15:00:25;1.05;;;0.70;;
31594;SDS011;18200;48.726;8.892;2023-08-06T15:04:25;2.60;;;0.80;;
31594;SDS011;18200;48.726;8.892;2023-08-06T15:08:26;0.82;;;0.80;;
31594;SDS011;18200;48.726;8.892;2023-08-06T15:12:26;1.98;;;0.80;;
31594;SDS011;18200;48.726;8.892;2023-08-06T15:16:26;1.83;;;0.70;;
31594;SDS011;18200;48.726;8.892;2023-08-06T15:20:27;1.27;;;0.60;;
31594;SDS011;18200;48.726;8.892;2023-08-06T15:24:27;2.50;;;0.93;;
31594;SDS011;18200;48.726;8.892;2023-08-06T15:28:28;1.52;;;0.60;;
31594;SDS011;18200;48.726;8.892;2023-08-06T15:32:28;1.33;;;0.80;;
31594;SDS011;18200;48.726;8.892;2023-08-06T15:36:28;2.53;;;0.70;;
31594;SDS011;18200;48.726;8.892;2023-08-06T15:40:29;1.73;;;0.70;;
31594;SDS011;18200;48.726;8.892;2023-08-06T15:44:29;1.63;;;0.70;;
31594;SDS011;18200;48.726;8.892;2023-08-06T15:48:30;2.38;;;0.90;;
31594;SDS011;18200;48.726;8.892;2023-08-06T15:52:30;1.33;;;0.90;;
31594;SDS011;18200;48.726;8.892;2023-08-06T15:56:30;1.45;;;0.90;;
31594;SDS011;18200;48.726;8.892;2023-08-06T16:00:31;3.10;;;1.10;;
31594;SDS011;18200;48.726;8.892;2023-08-06T16:04:31;1.25;;;0.70;;
31594;SDS011;18200;48.726;8.892;2023-08-06T16:08:32;1.63;;;1.00;;
31594;SDS011;18200;48.726;8.892;2023-08-06T16:12:32;2.30;;;1.00;;
31594;SDS011;18200;48.726;8.892;2023-08-06T16:16:32;2.85;;;1.00;;
31594;SDS011;18200;48.726;8.892;2023-08-06T16:20:33;4.00;;;0.70;;
31594;SDS011;18200;48.726;8.892;2023-08-06T16:24:34;1.92;;;0.80;;
31594;SDS011;18200;48.726;8.892;2023-08-06T16:28:34;2.08;;;0.88;;
31594;SDS011;18200;48.726;8.892;2023-08-06T16:32:36;3.72;;;0.70;;
31594;SDS011;18200;48.726;8.892;2023-08-06T16:36:36;0.77;;;0.77;;
31594;SDS011;18200;48.726;8.892;2023-08-06T16:40:37;2.25;;;1.33;;
31594;SDS011;18200;48.726;8.892;2023-08-06T16:44:37;1.88;;;0.60;;
31594;SDS011;18200;48.726;8.892;2023-08-06T16:48:37;1.80;;;1.00;;
31594;SDS011;18200;48.726;8.892;2023-08-06T16:52:38;1.23;;;0.90;;
31594;SDS011;18200;48.726;8.892;2023-08-06T16:56:38;1.05;;;0.88;;
31594;SDS011;18200;48.726;8.892;2023-08-06T17:00:38;2.20;;;1.80;;
31594;SDS011;18200;48.726;8.892;2023-08-06T17:04:39;1.23;;;0.85;;
31594;SDS011;18200;48.726;8.892;2023-08-06T17:08:39;2.15;;;1.33;;
31594;SDS011;18200;48.726;8.892;2023-08-06T17:12:39;1.98;;;1.20;;
31594;SDS011;18200;48.726;8.892;2023-08-06T17:16:40;2.40;;;1.10;;
31594;SDS011;18200;48.726;8.892;2023-08-06T17:20:40;2.97;;;0.93;;
31594;SDS011;18200;48.726;8.892;2023-08-06T17:24:41;1.75;;;1.10;;
31594;SDS011;18200;48.726;8.892;2023-08-06T17:28:41;1.40;;;1.00;;
31594;SDS011;18200;48.726;8.892;2023-08-06T17:32:41;3.78;;;1.85;;
31594;SDS011;18200;48.726;8.892;2023-08-06T17:36:43;2.08;;;1.52;;
31594;SDS011;18200;48.726;8.892;2023-08-06T17:40:43;2.67;;;1.27;;
31594;SDS011;18200;48.726;8.892;2023-08-06T17:44:44;4.85;;;2.05;;
31594;SDS011;18200;48.726;8.892;2023-08-06T17:48:44;4.55;;;1.88;;
31594;SDS011;18200;48.726;8.892;2023-08-06T17:52:45;5.88;;;1.83;;
31594;SDS011;18200;48.726;8.892;2023-08-06T17:56:46;4.15;;;1.50;;
31594;SDS011;18200;48.726;8.892;2023-08-06T18:00:46;7.13;;;2.25;;
31594;SDS011;18200;48.726;8.892;2023-08-06T18:04:49;7.57;;;2.05;;
31594;SDS011;18200;48.726;8.892;2023-08-06T18:08:50;2.72;;;1.48;;
31594;SDS011;18200;48.726;8.892;2023-08-06T18:12:50;5.15;;;1.70;;
31594;SDS011;18200;48.726;8.892;2023-08-06T18:16:51;7.32;;;2.10;;
31594;SDS011;18200;48.726;8.892;2023-08-06T18:20:51;3.47;;;1.52;;
31594;SDS011;18200;48.726;8.892;2023-08-06T18:24:52;3.90;;;1.50;;
31594;SDS011;18200;48.726;8.892;2023-08-06T18:28:52;1.70;;;1.30;;
31594;SDS011;18200;48.726;8.892;2023-08-06T18:32:53;3.50;;;1.70;;
31594;SDS011;18200;48.726;8.892;2023-08-06T18:36:53;1.70;;;1.50;;
31594;SDS011;18200;48.726;8.892;2023-08-06T18:40:57;3.97;;;1.55;;
31594;SDS011;18200;48.726;8.892;2023-08-06T18:48:58;7.27;;;1.83;;
31594;SDS011;18200;48.726;8.892;2023-08-06T18:52:58;5.05;;;1.95;;
31594;SDS011;18200;48.726;8.892;2023-08-06T18:56:59;4.70;;;1.77;;
31594;SDS011;18200;48.726;8.892;2023-08-06T19:00:59;4.53;;;1.60;;
31594;SDS011;18200;48.726;8.892;2023-08-06T19:04:59;2.92;;;1.67;;
31594;SDS011;18200;48.726;8.892;2023-08-06T19:09:00;3.33;;;1.40;;
31594;SDS011;18200;48.726;8.892;2023-08-06T19:13:06;3.55;;;2.70;;
31594;SDS011;18200;48.726;8.892;2023-08-06T19:17:07;2.95;;;1.70;;
31594;SDS011;18200;48.726;8.892;2023-08-06T19:21:08;5.68;;;1.95;;
31594;SDS011;18200;48.726;8.892;2023-08-06T19:25:09;3.53;;;1.85;;
31594;SDS011;18200;48.726;8.892;2023-08-06T19:29:09;4.63;;;1.55;;
31594;SDS011;18200;48.726;8.892;2023-08-06T19:33:10;2.95;;;1.80;;
31594;SDS011;18200;48.726;8.892;2023-08-06T19:37:13;3.50;;;1.95;;
31594;SDS011;18200;48.726;8.892;2023-08-06T19:41:14;6.22;;;1.80;;
31594;SDS011;18200;48.726;8.892;2023-08-06T19:45:14;6.07;;;1.95;;
31594;SDS011;18200;48.726;8.892;2023-08-06T19:49:15;4.65;;;1.35;;
31594;SDS011;18200;48.726;8.892;2023-08-06T19:53:15;3.92;;;1.52;;
31594;SDS011;18200;48.726;8.892;2023-08-06T19:57:15;2.60;;;1.52;;
31594;SDS011;18200;48.726;8.892;2023-08-06T20:01:17;2.15;;;1.48;;
31594;SDS011;18200;48.726;8.892;2023-08-06T20:05:17;3.15;;;1.35;;
31594;SDS011;18200;48.726;8.892;2023-08-06T20:09:18;4.50;;;1.55;;
31594;SDS011;18200;48.726;8.892;2023-08-06T20:13:18;3.60;;;1.10;;
31594;SDS011;18200;48.726;8.892;2023-08-06T20:17:19;6.80;;;1.38;;
31594;SDS011;18200;48.726;8.892;2023-08-06T20:21:19;3.10;;;1.10;;
31594;SDS011;18200;48.726;8.892;2023-08-06T20:25:19;3.50;;;1.45;;
31594;SDS011;18200;48.726;8.892;2023-08-06T20:29:20;7.53;;;1.77;;
31594;SDS011;18200;48.726;8.892;2023-08-06T20:33:20;3.70;;;1.35;;
31594;SDS011;18200;48.726;8.892;2023-08-06T20:37:20;3.22;;;1.33;;
31594;SDS011;18200;48.726;8.892;2023-08-06T20:41:21;1.67;;;1.08;;
31594;SDS011;18200;48.726;8.892;2023-08-06T20:45:21;3.83;;;1.50;;
31594;SDS011;18200;48.726;8.892;2023-08-06T20:49:22;2.42;;;1.05;;
31594;SDS011;18200;48.726;8.892;2023-08-06T20:53:22;2.92;;;1.15;;
31594;SDS011;18200;48.726;8.892;2023-08-06T20:57:22;4.57;;;1.63;;
31594;SDS011;18200;48.726;8.892;2023-08-06T21:01:23;2.35;;;1.15;;
31594;SDS011;18200;48.726;8.892;2023-08-06T21:05:23;3.35;;;1.00;;
31594;SDS011;18200;48.726;8.892;2023-08-06T21:09:25;3.78;;;1.02;;
31594;SDS011;18200;48.726;8.892;2023-08-06T21:13:26;2.72;;;1.10;;
31594;SDS011;18200;48.726;8.892;2023-08-06T21:17:27;2.53;;;1.10;;
31594;SDS011;18200;48.726;8.892;2023-08-06T21:21:27;4.70;;;1.10;;
31594;SDS011;18200;48.726;8.892;2023-08-06T21:25:28;4.50;;;1.10;;
31594;SDS011;18200;48.726;8.892;2023-08-06T21:29:28;2.53;;;1.15;;
31594;SDS011;18200;48.726;8.892;2023-08-06T21:33:30;4.18;;;1.05;;
31594;SDS011;18200;48.726;8.892;2023-08-06T21:37:31;1.88;;;1.20;;
31594;SDS011;18200;48.726;8.892;2023-08-06T21:41:31;2.30;;;1.23;;
31594;SDS011;18200;48.726;8.892;2023-08-06T21:45:35;3.08;;;1.00;;
31594;SDS011;18200;48.726;8.892;2023-08-06T21:49:35;1.47;;;0.97;;
31594;SDS011;18200;48.726;8.892;2023-08-06T21:53:36;3.55;;;1.33;;
31594;SDS011;18200;48.726;8.892;2023-08-06T21:57:37;4.82;;;1.60;;
31594;SDS011;18200;48.726;8.892;2023-08-06T22:01:38;1.67;;;1.25;;
31594;SDS011;18200;48.726;8.892;2023-08-06T22:05:38;1.65;;;1.13;;
31594;SDS011;18200;48.726;8.892;2023-08-06T22:09:39;2.33;;;1.50;;
31594;SDS011;18200;48.726;8.892;2023-08-06T22:13:39;3.88;;;1.38;;
31594;SDS011;18200;48.726;8.892;2023-08-06T22:17:40;4.65;;;1.45;;
31594;SDS011;18200;48.726;8.892;2023-08-06T22:21:40;7.07;;;1.70;;
31594;SDS011;18200;48.726;8.892;2023-08-06T22:25:41;4.35;;;1.80;;
31594;SDS011;18200;48.726;8.892;2023-08-06T22:29:41;7.03;;;1.90;;
31594;SDS011;18200;48.726;8.892;2023-08-06T22:33:41;7.28;;;1.80;;
31594;SDS011;18200;48.726;8.892;2023-08-06T22:37:51;3.72;;;1.67;;
31594;SDS011;18200;48.726;8.892;2023-08-06T22:41:51;7.53;;;2.13;;
31594;SDS011;18200;48.726;8.892;2023-08-06T22:45:52;2.63;;;1.45;;
31594;SDS011;18200;48.726;8.892;2023-08-06T22:49:52;3.83;;;1.38;;
31594;SDS011;18200;48.726;8.892;2023-08-06T22:53:52;3.28;;;1.80;;
31594;SDS011;18200;48.726;8.892;2023-08-06T22:57:53;3.13;;;1.58;;
31594;SDS011;18200;48.726;8.892;2023-08-06T23:01:53;6.65;;;1.90;;
31594;SDS011;18200;48.726;8.892;2023-08-06T23:05:53;3.05;;;1.73;;
31594;SDS011;18200;48.726;8.892;2023-08-06T23:09:54;3.47;;;1.75;;
31594;SDS011;18200;48.726;8.892;2023-08-06T23:13:54;7.45;;;2.15;;
31594;SDS011;18200;48.726;8.892;2023-08-06T23:17:55;3.63;;;2.00;;
31594;SDS011;18200;48.726;8.892;2023-08-06T23:21:55;5.43;;;1.80;;
31594;SDS011;18200;48.726;8.892;2023-08-06T23:25:55;4.38;;;1.65;;
31594;SDS011;18200;48.726;8.892;2023-08-06T23:29:55;2.78;;;1.40;;
31594;SDS011;18200;48.726;8.892;2023-08-06T23:33:56;4.50;;;1.52;;
31594;SDS011;18200;48.726;8.892;2023-08-06T23:37:56;5.88;;;1.75;;
31594;SDS011;18200;48.726;8.892;2023-08-06T23:41:57;5.25;;;1.75;;
31594;SDS011;18200;48.726;8.892;2023-08-06T23:45:57;4.82;;;1.80;;
31594;SDS011;18200;48.726;8.892;2023-08-06T23:49:59;5.65;;;2.13;;
31594;SDS011;18200;48.726;8.892;2023-08-06T23:53:59;9.98;;;2.13;;
31594;SDS011;18200;48.726;8.892;2023-08-06T23:57:59;7.43;;;1.73;;
